createdAt,value
2017-08-15T00:00:14.832Z,16.8
2017-08-15T00:01:14.021Z,16.8
2017-08-15T00:02:13.087Z,16.8
2017-08-15T00:03:12.667Z,16.8
2017-08-15T00:04:11.757Z,16.8
2017-08-15T00:05:10.598Z,16.8
2017-08-15T00:06:10.291Z,16.8
2017-08-15T00:07:09.524Z,16.8
2017-08-15T00:08:08.610Z,16.8
2017-08-15T00:09:07.960Z,16.8
2017-08-15T00:10:07.135Z,16.8
2017-08-15T00:11:06.332Z,16.8
2017-08-15T00:12:05.532Z,16.8
2017-08-15T00:13:04.990Z,16.8
2017-08-15T00:14:04.178Z,16.8
2017-08-15T00:15:03.378Z,16.7
2017-08-15T00:16:02.958Z,16.8
2017-08-15T00:17:02.143Z,16.8
2017-08-15T00:18:01.344Z,16.8
2017-08-15T00:19:00.421Z,16.8
2017-08-15T00:19:59.485Z,16.7
2017-08-15T00:20:58.684Z,16.8
2017-08-15T00:21:58.278Z,16.7
2017-08-15T00:22:57.471Z,16.7
2017-08-15T00:23:56.657Z,16.7
2017-08-15T00:24:55.862Z,16.7
2017-08-15T00:25:54.931Z,16.7
2017-08-15T00:26:25.449Z,16.7
2017-08-15T00:27:53.754Z,16.7
2017-08-15T00:28:52.697Z,16.7
2017-08-15T00:29:52.035Z,16.7
2017-08-15T00:30:51.108Z,16.7
2017-08-15T00:31:50.692Z,16.7
2017-08-15T00:32:49.640Z,16.6
2017-08-15T00:33:48.593Z,16.6
2017-08-15T00:34:48.167Z,16.6
2017-08-15T00:35:47.357Z,16.6
2017-08-15T00:36:46.941Z,16.6
2017-08-15T00:37:17.341Z,16.6
2017-08-15T00:38:45.229Z,16.6
2017-08-15T00:39:44.417Z,16.6
2017-08-15T00:40:43.365Z,16.6
2017-08-15T00:41:43.059Z,16.6
2017-08-15T00:42:42.127Z,16.6
2017-08-15T00:43:41.315Z,16.6
2017-08-15T00:44:40.497Z,16.6
2017-08-15T00:45:40.200Z,16.6
2017-08-15T00:46:39.262Z,16.6
2017-08-15T00:47:38.454Z,16.7
2017-08-15T00:48:37.653Z,16.7
2017-08-15T00:49:36.856Z,16.6
2017-08-15T00:50:36.045Z,16.6
2017-08-15T00:51:35.253Z,16.6
2017-08-15T00:52:34.459Z,16.6
2017-08-15T00:53:33.538Z,16.7
2017-08-15T00:54:33.236Z,16.7
2017-08-15T00:55:32.435Z,16.6
2017-08-15T00:56:31.506Z,16.6
2017-08-15T00:57:30.589Z,16.6
2017-08-15T00:58:30.286Z,16.6
2017-08-15T00:59:29.372Z,16.6
2017-08-15T01:00:28.562Z,16.6
2017-08-15T01:01:27.649Z,16.6
2017-08-15T01:02:26.840Z,16.6
2017-08-15T01:03:25.920Z,16.6
2017-08-15T01:04:25.501Z,16.6
2017-08-15T01:05:24.449Z,16.6
2017-08-15T01:06:24.040Z,16.6
2017-08-15T01:07:23.111Z,16.5
2017-08-15T01:08:22.308Z,16.5
2017-08-15T01:09:21.906Z,16.5
2017-08-15T01:10:21.097Z,16.5
2017-08-15T01:11:20.299Z,16.5
2017-08-15T01:12:19.370Z,16.5
2017-08-15T01:13:18.561Z,16.5
2017-08-15T01:14:17.634Z,16.5
2017-08-15T01:15:17.319Z,16.4
2017-08-15T01:15:47.815Z,16.4
2017-08-15T01:16:18.203Z,16.4
2017-08-15T01:16:48.581Z,16.4
2017-08-15T01:17:19.092Z,16.4
2017-08-15T01:17:49.607Z,16.4
2017-08-15T01:18:19.992Z,16.4
2017-08-15T01:18:50.246Z,16.4
2017-08-15T01:19:20.387Z,16.4
2017-08-15T01:19:51.279Z,16.4
2017-08-15T01:21:12.619Z,16.4
2017-08-15T01:22:11.459Z,16.4
2017-08-15T01:23:11.038Z,16.4
2017-08-15T01:24:09.998Z,16.4
2017-08-15T01:25:09.572Z,16.4
2017-08-15T01:26:08.778Z,16.3
2017-08-15T01:27:07.966Z,16.4
2017-08-15T01:28:06.792Z,16.3
2017-08-15T01:29:06.382Z,16.3
2017-08-15T01:29:36.891Z,16.3
2017-08-15T01:31:04.780Z,16.3
2017-08-15T01:32:03.857Z,16.3
2017-08-15T01:34:02.347Z,16.4
2017-08-15T01:35:01.920Z,16.4
2017-08-15T01:36:01.112Z,16.4
2017-08-15T01:37:00.302Z,16.4
2017-08-15T01:37:59.502Z,16.4
2017-08-15T01:38:58.339Z,16.4
2017-08-15T01:39:57.808Z,16.4
2017-08-15T01:40:56.883Z,16.3
2017-08-15T01:41:56.587Z,16.3
2017-08-15T01:42:55.666Z,16.3
2017-08-15T01:43:54.773Z,16.3
2017-08-15T01:44:53.967Z,16.3
2017-08-15T01:45:53.173Z,16.3
2017-08-15T01:46:52.366Z,16.3
2017-08-15T01:47:22.860Z,16.3
2017-08-15T01:47:53.364Z,16.2
2017-08-15T01:48:23.857Z,16.2
2017-08-15T01:48:54.372Z,16.2
2017-08-15T01:49:24.868Z,16.2
2017-08-15T01:50:49.733Z,16.2
2017-08-15T01:51:48.931Z,16.2
2017-08-15T01:52:47.998Z,16.2
2017-08-15T01:53:47.188Z,16.2
2017-08-15T01:54:46.265Z,16.1
2017-08-15T01:55:45.482Z,16.1
2017-08-15T01:56:44.666Z,16.1
2017-08-15T01:57:44.359Z,16.2
2017-08-15T01:58:43.558Z,16.2
2017-08-15T01:59:42.748Z,16.1
2017-08-15T02:00:41.942Z,16.1
2017-08-15T02:01:41.137Z,16.1
2017-08-15T02:02:40.322Z,16.1
2017-08-15T02:03:39.528Z,16
2017-08-15T02:04:38.735Z,16.1
2017-08-15T02:05:37.937Z,16
2017-08-15T02:06:36.997Z,16
2017-08-15T02:07:36.072Z,16
2017-08-15T02:08:35.769Z,16
2017-08-15T02:09:06.032Z,16
2017-08-15T02:09:36.424Z,16
2017-08-15T02:10:06.812Z,16
2017-08-15T02:10:37.204Z,16
2017-08-15T02:11:33.373Z,16
2017-08-15T02:12:32.559Z,16
2017-08-15T02:13:31.759Z,16
2017-08-15T02:14:30.837Z,16
2017-08-15T02:15:30.039Z,16
2017-08-15T02:16:29.608Z,16
2017-08-15T02:17:28.710Z,16
2017-08-15T02:18:27.788Z,16
2017-08-15T02:19:26.750Z,15.9
2017-08-15T02:20:26.215Z,16
2017-08-15T02:21:25.398Z,15.9
2017-08-15T02:22:24.462Z,15.9
2017-08-15T02:23:24.026Z,15.9
2017-08-15T02:24:22.849Z,15.9
2017-08-15T02:24:53.618Z,15.9
2017-08-15T02:25:24.122Z,15.9
2017-08-15T02:26:21.559Z,15.9
2017-08-15T02:27:21.141Z,15.9
2017-08-15T02:28:20.206Z,15.8
2017-08-15T02:29:19.392Z,15.8
2017-08-15T02:30:18.461Z,15.8
2017-08-15T02:31:17.550Z,15.8
2017-08-15T02:32:17.791Z,15.8
2017-08-15T02:33:16.359Z,15.8
2017-08-15T02:34:15.555Z,15.8
2017-08-15T02:35:14.635Z,15.8
2017-08-15T02:36:13.829Z,15.8
2017-08-15T02:37:12.908Z,15.8
2017-08-15T02:38:12.105Z,15.8
2017-08-15T02:39:11.669Z,15.8
2017-08-15T02:40:10.854Z,15.8
2017-08-15T02:41:09.925Z,15.8
2017-08-15T02:42:09.003Z,15.8
2017-08-15T02:43:08.182Z,15.8
2017-08-15T02:44:07.773Z,15.7
2017-08-15T02:45:06.856Z,15.7
2017-08-15T02:46:06.026Z,15.7
2017-08-15T02:47:05.086Z,15.7
2017-08-15T02:48:04.268Z,15.7
2017-08-15T02:49:03.786Z,15.7
2017-08-15T02:50:02.893Z,15.7
2017-08-15T02:51:01.950Z,15.7
2017-08-15T02:52:01.635Z,15.6
2017-08-15T02:53:00.720Z,15.6
2017-08-15T02:53:59.906Z,15.6
2017-08-15T02:54:59.087Z,15.6
2017-08-15T02:55:58.291Z,15.6
2017-08-15T02:56:57.469Z,15.6
2017-08-15T02:57:56.538Z,15.6
2017-08-15T02:58:55.610Z,15.6
2017-08-15T02:59:55.307Z,15.6
2017-08-15T03:00:54.139Z,15.6
2017-08-15T03:01:53.468Z,15.6
2017-08-15T03:02:52.658Z,15.6
2017-08-15T03:03:51.723Z,15.6
2017-08-15T03:04:22.094Z,15.6
2017-08-15T03:04:52.503Z,15.6
2017-08-15T03:05:23.155Z,15.6
2017-08-15T03:06:49.398Z,15.6
2017-08-15T03:07:48.841Z,15.6
2017-08-15T03:08:48.028Z,15.6
2017-08-15T03:09:47.100Z,15.6
2017-08-15T03:10:46.282Z,15.6
2017-08-15T03:11:45.463Z,15.6
2017-08-15T03:12:45.181Z,15.5
2017-08-15T03:13:44.375Z,15.5
2017-08-15T03:14:43.446Z,15.5
2017-08-15T03:15:42.637Z,15.5
2017-08-15T03:16:13.006Z,15.5
2017-08-15T03:16:43.384Z,15.5
2017-08-15T03:17:13.773Z,15.5
2017-08-15T03:17:44.152Z,15.5
2017-08-15T03:18:14.654Z,15.5
2017-08-15T03:19:39.516Z,15.5
2017-08-15T03:20:38.715Z,15.5
2017-08-15T03:21:37.549Z,15.5
2017-08-15T03:23:36.130Z,15.5
2017-08-15T03:24:35.213Z,15.5
2017-08-15T03:25:34.768Z,15.5
2017-08-15T03:26:33.944Z,15.5
2017-08-15T03:27:33.315Z,15.5
2017-08-15T03:29:31.664Z,15.5
2017-08-15T03:30:30.857Z,15.4
2017-08-15T03:31:30.056Z,15.4
2017-08-15T03:32:29.253Z,15.3
2017-08-15T03:33:28.429Z,15.3
2017-08-15T03:34:27.493Z,15.3
2017-08-15T03:34:57.992Z,15.3
2017-08-15T03:35:28.503Z,15.3
2017-08-15T03:35:58.887Z,15.3
2017-08-15T03:37:25.141Z,15.3
2017-08-15T03:38:24.339Z,15.4
2017-08-15T03:39:23.905Z,15.4
2017-08-15T03:40:22.864Z,15.4
2017-08-15T03:41:22.053Z,15.4
2017-08-15T03:42:21.238Z,15.4
2017-08-15T03:43:20.309Z,15.4
2017-08-15T03:44:19.492Z,15.4
2017-08-15T03:45:18.681Z,15.4
2017-08-15T03:46:18.363Z,15.4
2017-08-15T03:47:17.322Z,15.4
2017-08-15T03:48:16.511Z,15.3
2017-08-15T03:49:15.711Z,15.3
2017-08-15T03:50:15.351Z,15.3
2017-08-15T03:51:14.421Z,15.3
2017-08-15T03:52:13.245Z,15.3
2017-08-15T03:53:12.320Z,15.3
2017-08-15T03:54:11.901Z,15.3
2017-08-15T03:55:11.084Z,15.3
2017-08-15T03:56:10.145Z,15.3
2017-08-15T03:56:40.635Z,15.3
2017-08-15T03:57:11.125Z,15.3
2017-08-15T03:57:41.615Z,15.3
2017-08-15T03:58:11.884Z,15.3
2017-08-15T03:59:07.706Z,15.3
2017-08-15T04:00:07.023Z,15.3
2017-08-15T04:01:06.208Z,15.3
2017-08-15T04:02:05.396Z,15.3
2017-08-15T04:03:04.579Z,15.3
2017-08-15T04:04:03.653Z,15.3
2017-08-15T04:05:03.126Z,15.3
2017-08-15T04:06:02.190Z,15.3
2017-08-15T04:07:01.260Z,15.3
2017-08-15T04:08:00.339Z,15.3
2017-08-15T04:09:00.120Z,15.3
2017-08-15T04:09:59.316Z,15.4
2017-08-15T04:10:58.395Z,15.4
2017-08-15T04:11:57.467Z,15.5
2017-08-15T04:12:56.661Z,15.5
2017-08-15T04:13:55.848Z,15.5
2017-08-15T04:14:54.918Z,15.6
2017-08-15T04:15:53.974Z,15.6
2017-08-15T04:17:52.801Z,15.7
2017-08-15T04:18:51.792Z,15.7
2017-08-15T04:19:51.363Z,15.8
2017-08-15T04:20:50.429Z,15.8
2017-08-15T04:22:48.409Z,15.9
2017-08-15T04:23:48.089Z,15.9
2017-08-15T04:24:47.280Z,16
2017-08-15T04:25:46.245Z,16
2017-08-15T04:26:45.320Z,16
2017-08-15T04:27:45.023Z,16.1
2017-08-15T04:28:44.208Z,16.1
2017-08-15T04:29:43.398Z,16.1
2017-08-15T04:30:42.461Z,16.1
2017-08-15T04:31:41.535Z,16.1
2017-08-15T04:32:40.726Z,16.1
2017-08-15T04:33:39.913Z,16.1
2017-08-15T04:34:38.984Z,16.1
2017-08-15T04:35:38.058Z,16.1
2017-08-15T04:36:37.625Z,16.1
2017-08-15T04:37:36.806Z,16.2
2017-08-15T04:38:35.995Z,16.2
2017-08-15T04:39:35.176Z,16.3
2017-08-15T04:40:34.247Z,16.4
2017-08-15T04:41:34.001Z,16.4
2017-08-15T04:42:32.446Z,16.5
2017-08-15T04:43:03.329Z,16.5
2017-08-15T04:44:31.092Z,16.5
2017-08-15T04:45:30.056Z,16.5
2017-08-15T04:46:29.741Z,16.6
2017-08-15T04:47:28.819Z,16.6
2017-08-15T04:48:28.003Z,16.7
2017-08-15T04:49:26.964Z,16.7
2017-08-15T04:50:26.154Z,16.7
2017-08-15T04:51:25.726Z,16.7
2017-08-15T04:52:24.791Z,16.8
2017-08-15T04:53:23.862Z,16.9
2017-08-15T04:54:23.050Z,17
2017-08-15T04:55:22.242Z,17
2017-08-15T04:56:21.438Z,17
2017-08-15T04:57:20.503Z,17
2017-08-15T04:58:20.191Z,17.1
2017-08-15T04:59:19.372Z,17.1
2017-08-15T05:00:18.567Z,17.2
2017-08-15T05:01:17.754Z,17.3
2017-08-15T05:02:16.937Z,17.3
2017-08-15T05:03:16.125Z,17.3
2017-08-15T05:03:46.617Z,17.3
2017-08-15T05:04:16.987Z,17.3
2017-08-15T05:04:47.399Z,17.3
2017-08-15T05:06:13.778Z,17.4
2017-08-15T05:07:12.962Z,17.5
2017-08-15T05:08:12.024Z,17.5
2017-08-15T05:09:10.981Z,17.5
2017-08-15T05:11:09.552Z,17.7
2017-08-15T05:12:08.622Z,17.8
2017-08-15T05:13:07.800Z,17.8
2017-08-15T05:14:06.764Z,17.9
2017-08-15T05:15:06.459Z,17.9
2017-08-15T05:16:05.647Z,18
2017-08-15T05:17:04.604Z,18
2017-08-15T05:18:04.184Z,18
2017-08-15T05:19:03.141Z,18
2017-08-15T05:20:02.336Z,18.1
2017-08-15T05:21:01.527Z,18.1
2017-08-15T05:21:31.907Z,18.1
2017-08-15T05:22:02.307Z,18.2
2017-08-15T05:22:32.568Z,18.2
2017-08-15T05:23:02.958Z,18.3
2017-08-15T05:23:33.454Z,18.3
2017-08-15T05:24:58.317Z,18.3
2017-08-15T05:25:57.178Z,18.3
2017-08-15T05:26:56.872Z,18.4
2017-08-15T05:27:55.933Z,18.4
2017-08-15T05:28:55.017Z,18.4
2017-08-15T05:29:54.473Z,18.5
2017-08-15T05:30:53.548Z,18.6
2017-08-15T05:31:52.734Z,18.5
2017-08-15T05:32:52.309Z,18.6
2017-08-15T05:33:51.488Z,18.6
2017-08-15T05:34:21.741Z,18.6
2017-08-15T05:34:52.508Z,18.8
2017-08-15T05:35:22.900Z,18.8
2017-08-15T05:36:48.767Z,19
2017-08-15T05:37:47.849Z,19.1
2017-08-15T05:38:47.538Z,19.1
2017-08-15T05:39:46.722Z,19.1
2017-08-15T05:40:45.918Z,19.2
2017-08-15T05:41:44.991Z,19.3
2017-08-15T05:42:44.175Z,19.3
2017-08-15T05:43:43.256Z,19.3
2017-08-15T05:44:42.437Z,19.4
2017-08-15T05:45:41.505Z,19.5
2017-08-15T05:46:41.185Z,19.5
2017-08-15T05:47:39.887Z,19.4
2017-08-15T05:48:39.456Z,19.4
2017-08-15T05:49:38.649Z,19.3
2017-08-15T05:50:37.720Z,19.5
2017-08-15T05:52:36.326Z,19.5
2017-08-15T05:53:35.392Z,19.6
2017-08-15T05:54:34.578Z,19.6
2017-08-15T05:55:33.649Z,19.6
2017-08-15T05:56:32.823Z,19.6
2017-08-15T05:57:32.299Z,19.9
2017-08-15T05:58:31.491Z,19.9
2017-08-15T05:59:30.450Z,19.9
2017-08-15T06:00:29.632Z,19.9
2017-08-15T06:01:29.226Z,20
2017-08-15T06:02:28.416Z,20
2017-08-15T06:03:27.481Z,20.1
2017-08-15T06:04:26.678Z,20.3
2017-08-15T06:05:25.914Z,20.5
2017-08-15T06:06:24.629Z,20.5
2017-08-15T06:07:24.316Z,20.5
2017-08-15T06:08:23.512Z,20.6
2017-08-15T06:09:22.565Z,20.6
2017-08-15T06:10:21.734Z,20.5
2017-08-15T06:11:21.312Z,20.4
2017-08-15T06:12:20.493Z,20.5
2017-08-15T06:13:19.674Z,20.4
2017-08-15T06:14:18.858Z,20.4
2017-08-15T06:14:49.230Z,20.4
2017-08-15T06:15:19.597Z,20.4
2017-08-15T06:16:17.268Z,20.4
2017-08-15T06:17:16.631Z,20.4
2017-08-15T06:18:15.697Z,20.3
2017-08-15T06:19:14.887Z,20.2
2017-08-15T06:20:13.952Z,20.1
2017-08-15T06:21:13.538Z,20
2017-08-15T06:22:12.592Z,20.1
2017-08-15T06:23:11.785Z,20.1
2017-08-15T06:24:11.368Z,20.1
2017-08-15T06:25:10.201Z,20.3
2017-08-15T06:26:09.531Z,20.5
2017-08-15T06:27:08.595Z,20.6
2017-08-15T06:28:08.154Z,20.7
2017-08-15T06:29:07.347Z,21
2017-08-15T06:29:37.734Z,21
2017-08-15T06:31:05.605Z,21.4
2017-08-15T06:32:04.806Z,21.5
2017-08-15T06:33:03.861Z,21.5
2017-08-15T06:34:03.548Z,21.5
2017-08-15T06:35:02.744Z,21.8
2017-08-15T06:36:01.811Z,21.9
2017-08-15T06:37:01.316Z,22
2017-08-15T06:38:00.499Z,21.6
2017-08-15T06:38:59.443Z,21.5
2017-08-15T06:39:59.010Z,21.5
2017-08-15T06:40:58.200Z,21.4
2017-08-15T06:41:57.384Z,21.3
2017-08-15T06:42:56.336Z,21.3
2017-08-15T06:43:56.030Z,21.3
2017-08-15T06:44:55.105Z,21.3
2017-08-15T06:45:54.292Z,21.2
2017-08-15T06:46:53.476Z,21.1
2017-08-15T06:47:52.417Z,21.1
2017-08-15T06:48:51.871Z,21.2
2017-08-15T06:49:51.554Z,21.2
2017-08-15T06:50:50.494Z,21.2
2017-08-15T06:51:49.570Z,21.2
2017-08-15T06:52:49.032Z,21.1
2017-08-15T06:53:48.217Z,21.1
2017-08-15T06:54:47.667Z,21.1
2017-08-15T06:55:46.737Z,21.1
2017-08-15T06:56:46.424Z,21.2
2017-08-15T06:57:45.609Z,21.3
2017-08-15T06:58:44.816Z,21.4
2017-08-15T06:59:44.002Z,21.5
2017-08-15T07:00:43.076Z,21.6
2017-08-15T07:01:42.296Z,21.8
2017-08-15T07:02:41.992Z,22
2017-08-15T07:03:41.185Z,22.1
2017-08-15T07:04:40.376Z,22.3
2017-08-15T07:05:39.552Z,22.5
2017-08-15T07:06:38.740Z,22.8
2017-08-15T07:07:37.825Z,22.8
2017-08-15T07:08:37.401Z,22.8
2017-08-15T07:09:36.589Z,22.9
2017-08-15T07:10:35.767Z,22.9
2017-08-15T07:11:35.460Z,22.8
2017-08-15T07:12:34.659Z,22.8
2017-08-15T07:13:33.722Z,22.8
2017-08-15T07:14:32.927Z,22.8
2017-08-15T07:15:31.879Z,22.9
2017-08-15T07:16:31.445Z,23
2017-08-15T07:17:30.521Z,23.1
2017-08-15T07:18:30.208Z,23.2
2017-08-15T07:19:29.395Z,23.4
2017-08-15T07:19:59.897Z,23.4
2017-08-15T07:20:30.272Z,23.5
2017-08-15T07:21:00.650Z,23.5
2017-08-15T07:21:30.928Z,23.6
2017-08-15T07:22:01.188Z,23.6
2017-08-15T07:22:31.474Z,23.6
2017-08-15T07:23:01.990Z,23.6
2017-08-15T07:23:32.248Z,23.6
2017-08-15T07:24:02.756Z,23.6
2017-08-15T07:25:24.860Z,23.7
2017-08-15T07:26:24.547Z,23.8
2017-08-15T07:27:23.634Z,23.6
2017-08-15T07:28:22.687Z,23.5
2017-08-15T07:29:22.939Z,23.3
2017-08-15T07:30:21.616Z,23.3
2017-08-15T07:31:20.700Z,23.5
2017-08-15T07:32:19.762Z,23.6
2017-08-15T07:33:19.450Z,23.8
2017-08-15T07:33:49.944Z,23.8
2017-08-15T07:34:20.438Z,23.8
2017-08-15T07:35:18.119Z,23.9
2017-08-15T07:36:17.186Z,24
2017-08-15T07:37:16.384Z,24
2017-08-15T07:38:15.841Z,24
2017-08-15T07:39:15.014Z,24.1
2017-08-15T07:40:13.973Z,24.2
2017-08-15T07:42:12.830Z,24.2
2017-08-15T07:43:12.030Z,24.1
2017-08-15T07:44:11.598Z,24.1
2017-08-15T07:46:09.949Z,24.3
2017-08-15T07:47:09.525Z,24.3
2017-08-15T07:48:08.710Z,24.3
2017-08-15T07:49:07.899Z,24.3
2017-08-15T07:51:06.372Z,24.4
2017-08-15T07:51:36.880Z,24.4
2017-08-15T07:52:07.255Z,24.5
2017-08-15T07:52:37.515Z,24.5
2017-08-15T07:54:04.671Z,24.5
2017-08-15T07:55:03.617Z,24.5
2017-08-15T07:56:02.677Z,24.5
2017-08-15T07:57:02.367Z,24.7
2017-08-15T07:58:01.561Z,24.7
2017-08-15T07:59:01.031Z,24.7
2017-08-15T08:00:00.229Z,25
2017-08-15T08:00:59.306Z,25.1
2017-08-15T08:01:58.771Z,25.2
2017-08-15T08:02:57.975Z,25
2017-08-15T08:03:57.667Z,25
2017-08-15T08:04:56.633Z,25.1
2017-08-15T08:05:56.205Z,25.1
2017-08-15T08:06:55.153Z,25.1
2017-08-15T08:07:54.725Z,25.1
2017-08-15T08:08:53.811Z,25.1
2017-08-15T08:09:53.489Z,25.3
2017-08-15T08:10:52.433Z,25.2
2017-08-15T08:11:51.884Z,25
2017-08-15T08:12:51.344Z,24.9
2017-08-15T08:13:50.410Z,24.9
2017-08-15T08:14:50.103Z,24.9
2017-08-15T08:15:49.284Z,24.9
2017-08-15T08:16:48.354Z,25
2017-08-15T08:17:47.949Z,24.9
2017-08-15T08:18:47.145Z,25
2017-08-15T08:19:46.317Z,25
2017-08-15T08:20:45.998Z,25.1
2017-08-15T08:21:45.063Z,25.1
2017-08-15T08:22:44.239Z,25.2
2017-08-15T08:23:43.929Z,25.3
2017-08-15T08:24:43.127Z,25.2
2017-08-15T08:25:42.346Z,25
2017-08-15T08:26:41.416Z,24.9
2017-08-15T08:27:40.983Z,25
2017-08-15T08:28:40.179Z,25
2017-08-15T08:29:10.678Z,25
2017-08-15T08:29:41.178Z,25
2017-08-15T08:30:38.856Z,25.1
2017-08-15T08:31:38.552Z,25.2
2017-08-15T08:32:37.744Z,25.2
2017-08-15T08:33:36.945Z,25.2
2017-08-15T08:34:36.005Z,25.3
2017-08-15T08:35:35.695Z,25.4
2017-08-15T08:36:34.890Z,25.5
2017-08-15T08:37:34.449Z,25.5
2017-08-15T08:38:33.638Z,25.6
2017-08-15T08:39:32.833Z,25.6
2017-08-15T08:40:32.543Z,25.5
2017-08-15T08:41:31.609Z,25.4
2017-08-15T08:42:30.684Z,25.2
2017-08-15T08:43:30.252Z,25.1
2017-08-15T08:44:29.698Z,25.1
2017-08-15T08:45:29.269Z,25.3
2017-08-15T08:46:28.484Z,25.3
2017-08-15T08:47:27.670Z,25.3
2017-08-15T08:48:26.855Z,25.4
2017-08-15T08:48:57.229Z,25.4
2017-08-15T08:49:27.621Z,25.4
2017-08-15T08:50:25.579Z,25.4
2017-08-15T08:51:25.145Z,25.5
2017-08-15T08:52:24.219Z,25.5
2017-08-15T08:54:23.172Z,25.5
2017-08-15T08:55:22.116Z,25.6
2017-08-15T08:56:21.709Z,25.6
2017-08-15T08:57:21.397Z,25.6
2017-08-15T08:58:20.579Z,25.7
2017-08-15T08:58:51.077Z,25.7
2017-08-15T08:59:21.332Z,25.7
2017-08-15T08:59:51.833Z,25.7
2017-08-15T09:00:22.212Z,25.7
2017-08-15T09:00:52.596Z,25.7
2017-08-15T09:02:17.847Z,25.8
2017-08-15T09:03:17.317Z,26
2017-08-15T09:04:16.493Z,26
2017-08-15T09:05:15.948Z,26
2017-08-15T09:06:15.132Z,26
2017-08-15T09:07:14.599Z,26
2017-08-15T09:08:14.065Z,26
2017-08-15T09:09:13.642Z,26
2017-08-15T09:10:12.837Z,25.8
2017-08-15T09:11:12.304Z,25.8
2017-08-15T09:12:11.267Z,25.7
2017-08-15T09:13:10.967Z,25.7
2017-08-15T09:14:10.041Z,25.8
2017-08-15T09:15:09.717Z,25.8
2017-08-15T09:16:08.791Z,25.8
2017-08-15T09:17:08.491Z,25.8
2017-08-15T09:18:07.560Z,25.8
2017-08-15T09:19:07.258Z,25.8
2017-08-15T09:20:06.347Z,25.8
2017-08-15T09:21:06.051Z,25.8
2017-08-15T09:22:05.233Z,25.9
2017-08-15T09:24:03.572Z,25.9
2017-08-15T09:25:03.076Z,25.9
2017-08-15T09:26:02.779Z,26
2017-08-15T09:27:01.967Z,26.1
2017-08-15T09:28:01.038Z,26
2017-08-15T09:29:00.634Z,26
2017-08-15T09:30:00.331Z,26
2017-08-15T09:30:59.391Z,26.1
2017-08-15T09:31:59.088Z,25.9
2017-08-15T09:32:58.267Z,26
2017-08-15T09:33:57.848Z,26
2017-08-15T09:34:57.032Z,25.9
2017-08-15T09:35:56.220Z,26
2017-08-15T09:36:55.806Z,26.1
2017-08-15T09:37:54.988Z,26.1
2017-08-15T09:38:54.689Z,26.3
2017-08-15T09:39:53.879Z,26.4
2017-08-15T09:40:24.396Z,26.4
2017-08-15T09:40:54.905Z,26.4
2017-08-15T09:41:25.415Z,26.4
2017-08-15T09:41:55.795Z,26.4
2017-08-15T09:42:51.963Z,26.5
2017-08-15T09:43:51.661Z,26.6
2017-08-15T09:44:50.606Z,26.6
2017-08-15T09:45:50.293Z,26.7
2017-08-15T09:46:49.367Z,26.8
2017-08-15T09:47:48.818Z,26.8
2017-08-15T09:48:48.538Z,26.7
2017-08-15T09:49:47.721Z,26.6
2017-08-15T09:50:47.173Z,26.5
2017-08-15T09:51:46.361Z,26.5
2017-08-15T09:52:16.744Z,26.5
2017-08-15T09:52:47.139Z,26.3
2017-08-15T09:53:17.415Z,26.3
2017-08-15T09:54:44.650Z,26.5
2017-08-15T09:55:43.836Z,26.4
2017-08-15T09:56:43.527Z,26.5
2017-08-15T09:57:42.474Z,26.5
2017-08-15T09:58:42.156Z,26.5
2017-08-15T09:59:41.738Z,26.5
2017-08-15T10:00:41.018Z,26.5
2017-08-15T10:01:40.092Z,26.6
2017-08-15T10:02:39.776Z,26.5
2017-08-15T10:03:39.059Z,26.5
2017-08-15T10:04:38.762Z,26.4
2017-08-15T10:05:37.943Z,26.3
2017-08-15T10:06:37.514Z,26.3
2017-08-15T10:07:36.581Z,26.3
2017-08-15T10:08:36.045Z,26.3
2017-08-15T10:09:35.500Z,26.2
2017-08-15T10:10:35.185Z,26.2
2017-08-15T10:11:34.249Z,26.3
2017-08-15T10:12:33.934Z,26.3
2017-08-15T10:13:04.186Z,26.3
2017-08-15T10:13:34.679Z,26.3
2017-08-15T10:14:32.733Z,26.3
2017-08-15T10:15:31.930Z,26.3
2017-08-15T10:16:31.502Z,26.2
2017-08-15T10:17:30.689Z,26.2
2017-08-15T10:18:29.905Z,26.2
2017-08-15T10:19:29.485Z,26.1
2017-08-15T10:20:29.189Z,26.2
2017-08-15T10:21:28.547Z,26.1
2017-08-15T10:22:27.492Z,26.1
2017-08-15T10:23:26.843Z,26.1
2017-08-15T10:23:57.369Z,26.1
2017-08-15T10:24:27.872Z,26.2
2017-08-15T10:24:58.365Z,26.2
2017-08-15T10:25:28.861Z,26.2
2017-08-15T10:26:25.430Z,26.1
2017-08-15T10:27:25.007Z,26.1
2017-08-15T10:28:24.590Z,26.2
2017-08-15T10:29:23.661Z,26.2
2017-08-15T10:30:23.355Z,26.2
2017-08-15T10:31:22.549Z,26.2
2017-08-15T10:32:22.241Z,26.2
2017-08-15T10:33:21.425Z,26.1
2017-08-15T10:34:20.885Z,26.1
2017-08-15T10:35:20.568Z,26.1
2017-08-15T10:36:19.621Z,26.1
2017-08-15T10:37:19.196Z,26.2
2017-08-15T10:38:18.393Z,26.3
2017-08-15T10:39:18.084Z,26.3
2017-08-15T10:41:16.926Z,26.3
2017-08-15T10:42:16.115Z,26.2
2017-08-15T10:43:15.713Z,26.3
2017-08-15T10:44:15.409Z,26.3
2017-08-15T10:45:14.601Z,26.3
2017-08-15T10:46:13.668Z,26.3
2017-08-15T10:47:13.236Z,26.3
2017-08-15T10:48:12.953Z,26.3
2017-08-15T10:49:11.911Z,26.3
2017-08-15T10:49:42.418Z,26.3
2017-08-15T10:50:12.682Z,26.3
2017-08-15T10:51:11.120Z,26.4
2017-08-15T10:52:10.703Z,26.5
2017-08-15T10:53:10.326Z,26.4
2017-08-15T10:54:09.390Z,26.5
2017-08-15T10:55:08.973Z,26.5
2017-08-15T10:56:07.932Z,26.5
2017-08-15T10:58:07.301Z,26.5
2017-08-15T10:59:06.499Z,26.5
2017-08-15T11:00:06.191Z,26.5
2017-08-15T11:01:05.264Z,26.5
2017-08-15T11:02:04.846Z,26.5
2017-08-15T11:02:35.338Z,26.5
2017-08-15T11:03:05.601Z,26.5
2017-08-15T11:04:03.568Z,26.5
2017-08-15T11:05:03.158Z,26.5
2017-08-15T11:06:02.619Z,26.5
2017-08-15T11:07:02.319Z,26.5
2017-08-15T11:08:01.660Z,26.5
2017-08-15T11:09:00.979Z,26.5
2017-08-15T11:10:00.549Z,26.5
2017-08-15T11:11:00.235Z,26.5
2017-08-15T11:11:59.198Z,26.5
2017-08-15T11:12:58.658Z,26.4
2017-08-15T11:13:58.361Z,26.3
2017-08-15T11:14:58.072Z,26.3
2017-08-15T11:15:57.145Z,26.3
2017-08-15T11:16:56.718Z,26.3
2017-08-15T11:17:56.301Z,26.3
2017-08-15T11:18:55.396Z,26.3
2017-08-15T11:19:55.089Z,26.5
2017-08-15T11:20:25.345Z,26.5
2017-08-15T11:20:55.846Z,26.5
2017-08-15T11:21:26.251Z,26.5
2017-08-15T11:21:56.534Z,26.5
2017-08-15T11:22:27.096Z,26.5
2017-08-15T11:22:57.598Z,26.4
2017-08-15T11:23:28.109Z,26.4
2017-08-15T11:24:52.469Z,26.3
2017-08-15T11:25:51.662Z,26.5
2017-08-15T11:26:51.224Z,26.5
2017-08-15T11:27:50.684Z,26.5
2017-08-15T11:28:50.375Z,26.6
2017-08-15T11:29:49.563Z,26.5
2017-08-15T11:30:48.914Z,26.6
2017-08-15T11:31:48.608Z,26.6
2017-08-15T11:32:48.320Z,26.6
2017-08-15T11:33:18.696Z,26.6
2017-08-15T11:33:49.098Z,26.6
2017-08-15T11:34:19.482Z,26.6
2017-08-15T11:34:49.972Z,26.6
2017-08-15T11:35:20.927Z,26.6
2017-08-15T11:36:45.800Z,26.6
2017-08-15T11:37:45.490Z,26.7
2017-08-15T11:38:45.178Z,26.7
2017-08-15T11:39:44.243Z,26.7
2017-08-15T11:40:43.935Z,26.7
2017-08-15T11:42:42.903Z,26.6
2017-08-15T11:43:42.363Z,26.6
2017-08-15T11:44:41.833Z,26.7
2017-08-15T11:45:41.553Z,26.7
2017-08-15T11:46:40.502Z,26.8
2017-08-15T11:47:39.962Z,26.8
2017-08-15T11:48:39.651Z,26.9
2017-08-15T11:49:39.209Z,27
2017-08-15T11:50:38.558Z,26.9
2017-08-15T11:51:37.777Z,27
2017-08-15T11:52:37.616Z,27
2017-08-15T11:53:36.834Z,27
2017-08-15T11:54:36.908Z,26.8
2017-08-15T11:55:36.379Z,26.8
2017-08-15T11:56:35.440Z,26.8
2017-08-15T11:57:35.011Z,26.8
2017-08-15T11:58:34.578Z,26.8
2017-08-15T12:00:33.651Z,26.9
2017-08-15T12:01:33.217Z,27
2017-08-15T12:02:32.790Z,27
2017-08-15T12:03:32.478Z,26.9
2017-08-15T12:04:31.675Z,27
2017-08-15T12:05:31.252Z,26.9
2017-08-15T12:06:30.815Z,26.8
2017-08-15T12:07:30.501Z,26.8
2017-08-15T12:08:29.450Z,27
2017-08-15T12:09:29.011Z,27.1
2017-08-15T12:10:28.476Z,27.2
2017-08-15T12:11:28.063Z,27.1
2017-08-15T12:12:27.510Z,27.1
2017-08-15T12:13:27.196Z,27.1
2017-08-15T12:14:26.886Z,27.1
2017-08-15T12:15:26.342Z,27.1
2017-08-15T12:15:56.722Z,27.1
2017-08-15T12:18:24.754Z,27.1
2017-08-15T12:19:24.109Z,27
2017-08-15T12:20:23.822Z,27
2017-08-15T12:21:23.531Z,27
2017-08-15T12:22:23.095Z,27
2017-08-15T12:23:22.281Z,27.1
2017-08-15T12:24:21.852Z,27.1
2017-08-15T12:25:21.536Z,27.1
2017-08-15T12:26:21.123Z,27.1
2017-08-15T12:27:20.807Z,27.1
2017-08-15T12:28:19.881Z,27.1
2017-08-15T12:29:19.347Z,27.1
2017-08-15T12:30:19.309Z,27.1
2017-08-15T12:31:18.141Z,27.1
2017-08-15T12:32:18.225Z,27.1
2017-08-15T12:32:48.718Z,27.1
2017-08-15T12:33:19.230Z,27
2017-08-15T12:34:17.296Z,27.1
2017-08-15T12:35:17.000Z,27.1
2017-08-15T12:36:16.070Z,27.1
2017-08-15T12:37:15.755Z,27.3
2017-08-15T12:38:15.465Z,27.3
2017-08-15T12:39:15.150Z,27.3
2017-08-15T12:40:14.365Z,27.3
2017-08-15T12:41:14.058Z,27.3
2017-08-15T12:42:13.629Z,27.3
2017-08-15T12:43:13.322Z,27.3
2017-08-15T12:44:12.280Z,27.2
2017-08-15T12:45:12.474Z,27.3
2017-08-15T12:46:11.430Z,27.3
2017-08-15T12:47:11.507Z,27.2